Portada
METAR-TAF:

METAR-TAF

Aeroports :

Lahr, Alemanya

latitud: 48-22-09N, longitud: 007-49-40E, altitud: 156 m

Observació

L'informe es va fer fa 4 hores i 19 minuts, a les 18:50 UTC
Vent 8 kt del Sud
Temperatura 3°C
Humitat 87%
Pressió 1010 hPa
Visibilitat 10 km o més
Cel ennuvolat a una alçada de 4400 ft

METAR: EDTL 261850Z 19008KT 9999 BKN044 03/01 Q1010

Hora: 00:09 (23:09 UTC)

Pronòstic

L'informe es va fer fa 6 hores i 9 minuts, a les 17:00 UTC
Pronòstic vàlid del 26 a les 18 UTC al 26 a les 24 UTC
Vent 8 kt del Sud/Sud-Oest
Visibilitat 10 km o més
Cel ennuvolat a una alçada de 2500 ft
Probabilitat 30% :
Temporalment
l' 26 a les 18 UTC al 26 a les 24 UTC
Visibilitat: 2500 m
Cel ennuvolat a una alçada de 1200 ft, Cumulus congestus.
xàfecs de pluja, neu

TAF: EDTL 261700Z 2618/2624 20008KT 9999 BKN025 PROB30 TEMPO 2618/2624 2500 SHRASN BKN012TCU

Observacions i pronòstics meteorològics de més de 4000 aeroports (METAR i TAF).

Les estacions disponibles són els punts grocs i vermells al mapa.

Posi el ratolí al punt desitjat per veure el nom de l'estació.

Feu clic per veure les observacions i els pronòstics meteorològics.

Per canviar el mapa: feu clic els botons verds amb una creu de color negre per apropar; al botó verd amb un guió per allunyar la imatge; o en les fletxes verdes per a mapes adjacents.


METAR-TAF: